createdAt,value
2022-08-26T00:02:21.639Z,22.61
2022-08-26T00:15:43.762Z,22.78
2022-08-26T00:18:56.283Z,22.84
2022-08-26T00:22:04.507Z,22.92
2022-08-26T00:24:48.017Z,22.94
2022-08-26T00:27:57.913Z,22.98
2022-08-26T00:30:34.584Z,23.02
2022-08-26T00:36:35.823Z,23.10
2022-08-26T00:39:16.499Z,23.14
2022-08-26T00:42:13.629Z,23.17
2022-08-26T00:45:19.626Z,23.16
2022-08-26T00:48:43.005Z,23.13
2022-08-26T00:51:36.860Z,23.10
2022-08-26T00:58:09.251Z,23.02
2022-08-26T01:01:32.461Z,22.99
2022-08-26T01:04:55.993Z,22.94
2022-08-26T01:08:17.433Z,22.91
2022-08-26T01:11:43.852Z,22.89
2022-08-26T01:14:38.455Z,22.89
2022-08-26T01:17:31.299Z,22.90
2022-08-26T01:20:33.042Z,22.93
2022-08-26T01:26:32.781Z,22.95
2022-08-26T01:30:20.935Z,22.94
2022-08-26T01:33:08.178Z,22.91
2022-08-26T01:36:23.177Z,22.89
2022-08-26T01:38:55.612Z,22.88
2022-08-26T01:48:35.619Z,22.84
2022-08-26T01:51:47.642Z,22.80
2022-08-26T01:54:32.521Z,22.70
2022-08-26T01:57:17.862Z,22.59
2022-08-26T02:00:03.338Z,22.45
2022-08-26T02:02:52.619Z,22.28
2022-08-26T02:05:41.394Z,22.13
2022-08-26T02:08:22.706Z,21.96
2022-08-26T02:11:00.547Z,21.84
2022-08-26T02:13:39.619Z,21.80
2022-08-26T02:16:13.743Z,21.79
2022-08-26T02:18:47.334Z,21.78
2022-08-26T02:21:19.911Z,21.72
2022-08-26T02:23:56.106Z,21.68
2022-08-26T02:26:55.069Z,21.61
2022-08-26T02:29:33.867Z,21.56
2022-08-26T02:32:07.879Z,21.52
2022-08-26T02:34:42.837Z,21.49
2022-08-26T02:37:15.925Z,21.45
2022-08-26T02:40:02.335Z,21.43
2022-08-26T02:42:39.501Z,21.39
2022-08-26T02:45:23.052Z,21.36
2022-08-26T02:48:04.056Z,21.32
2022-08-26T02:50:49.193Z,21.30
2022-08-26T02:53:25.435Z,21.30
2022-08-26T02:55:57.830Z,21.29
2022-08-26T02:58:39.143Z,21.30
2022-08-26T03:01:11.242Z,21.31
2022-08-26T03:03:44.450Z,21.31
2022-08-26T03:06:20.900Z,21.33
2022-08-26T03:09:02.425Z,21.35
2022-08-26T03:11:34.490Z,21.35
2022-08-26T03:14:10.549Z,21.34
2022-08-26T03:16:57.872Z,21.37
2022-08-26T03:19:41.234Z,21.39
2022-08-26T03:22:22.175Z,21.41
2022-08-26T03:24:55.325Z,21.42
2022-08-26T03:27:25.576Z,21.42
2022-08-26T03:30:14.566Z,21.40
2022-08-26T03:32:47.399Z,21.39
2022-08-26T03:35:23.278Z,21.36
2022-08-26T03:37:57.687Z,21.32
2022-08-26T03:40:33.696Z,21.29
2022-08-26T03:43:19.211Z,21.26
2022-08-26T03:45:54.183Z,21.23
2022-08-26T03:48:28.204Z,21.21
2022-08-26T03:51:06.094Z,21.19
2022-08-26T03:53:42.631Z,21.16
2022-08-26T03:56:17.801Z,21.15
2022-08-26T03:58:50.930Z,21.13
2022-08-26T04:01:37.934Z,21.13
2022-08-26T04:04:15.517Z,21.13
2022-08-26T04:06:53.478Z,21.12
2022-08-26T04:09:31.746Z,21.12
2022-08-26T04:12:34.193Z,21.11
2022-08-26T04:15:12.019Z,21.13
2022-08-26T04:17:46.620Z,21.13
2022-08-26T04:20:21.759Z,21.12
2022-08-26T04:22:54.290Z,21.11
2022-08-26T04:25:28.146Z,21.10
2022-08-26T04:28:08.483Z,21.07
2022-08-26T04:33:57.281Z,21.00
2022-08-26T04:36:28.763Z,20.96
2022-08-26T04:39:02.021Z,20.93
2022-08-26T04:41:36.947Z,20.91
2022-08-26T04:44:14.855Z,20.94
2022-08-26T04:46:47.122Z,20.99
2022-08-26T04:52:26.893Z,21.12
2022-08-26T04:55:01.106Z,21.15
2022-08-26T04:57:33.848Z,21.17
2022-08-26T05:00:15.581Z,21.20
2022-08-26T05:02:52.802Z,21.24
2022-08-26T05:05:24.827Z,21.29
2022-08-26T05:08:06.625Z,21.34
2022-08-26T05:10:46.063Z,21.40
2022-08-26T05:13:41.808Z,21.47
2022-08-26T05:16:17.490Z,21.55
2022-08-26T05:18:54.219Z,21.63
2022-08-26T05:21:29.248Z,21.80
2022-08-26T05:26:05.062Z,22.67
2022-08-26T05:28:44.715Z,23.28
2022-08-26T05:31:28.498Z,23.92
2022-08-26T05:34:03.658Z,24.39
2022-08-26T05:36:36.974Z,24.53
2022-08-26T05:39:13.495Z,24.68
2022-08-26T05:41:50.669Z,24.82
2022-08-26T05:44:23.568Z,24.89
2022-08-26T05:46:55.533Z,25.04
2022-08-26T05:49:27.184Z,25.24
2022-08-26T05:51:59.565Z,25.32
2022-08-26T05:57:23.279Z,25.64
2022-08-26T05:59:58.576Z,25.77
2022-08-26T06:02:38.669Z,25.94
2022-08-26T06:05:10.923Z,26.26
2022-08-26T06:08:00.073Z,26.59
2022-08-26T06:10:35.169Z,26.97
2022-08-26T06:13:12.087Z,27.31
2022-08-26T06:15:45.863Z,27.46
2022-08-26T06:18:19.341Z,27.64
2022-08-26T06:20:58.042Z,27.96
2022-08-26T06:23:59.470Z,28.39
2022-08-26T06:26:30.638Z,28.68
2022-08-26T06:29:05.299Z,28.70
2022-08-26T06:31:37.464Z,28.72
2022-08-26T06:34:11.294Z,28.77
2022-08-26T06:36:45.051Z,28.88
2022-08-26T06:39:21.571Z,29.11
2022-08-26T06:41:56.419Z,29.29
2022-08-26T06:44:29.291Z,29.36
2022-08-26T06:47:00.637Z,29.43
2022-08-26T06:49:32.210Z,29.55
2022-08-26T06:52:04.157Z,29.72
2022-08-26T06:54:33.547Z,29.95
2022-08-26T06:57:05.532Z,30.21
2022-08-26T06:59:38.919Z,30.37
2022-08-26T07:02:13.768Z,30.60
2022-08-26T07:04:45.361Z,30.78
2022-08-26T07:07:19.428Z,30.56
2022-08-26T07:09:54.871Z,30.42
2022-08-26T07:12:28.986Z,30.45
2022-08-26T07:15:11.693Z,30.63
2022-08-26T07:17:46.885Z,30.79
2022-08-26T07:20:19.416Z,30.87
2022-08-26T07:22:51.378Z,30.83
2022-08-26T07:25:22.674Z,30.72
2022-08-26T07:27:54.640Z,30.62
2022-08-26T07:30:24.290Z,30.62
2022-08-26T07:32:59.229Z,30.65
2022-08-26T07:35:30.485Z,30.74
2022-08-26T07:38:01.809Z,31.01
2022-08-26T07:40:32.096Z,31.27
2022-08-26T07:43:04.469Z,31.30
2022-08-26T07:45:35.822Z,31.30
2022-08-26T07:48:07.701Z,31.41
2022-08-26T07:50:50.250Z,31.48
2022-08-26T07:53:21.763Z,31.47
2022-08-26T07:55:55.292Z,31.31
2022-08-26T07:58:25.297Z,31.23
2022-08-26T08:00:56.908Z,31.36
2022-08-26T08:03:29.823Z,31.38
2022-08-26T08:06:01.708Z,31.43
2022-08-26T08:08:32.937Z,31.65
2022-08-26T08:11:04.408Z,31.85
2022-08-26T08:13:37.670Z,31.96
2022-08-26T08:16:12.561Z,32.20
2022-08-26T08:18:43.957Z,32.67
2022-08-26T08:21:21.290Z,33.13
2022-08-26T08:24:00.257Z,33.53
2022-08-26T08:33:48.182Z,33.57
2022-08-26T08:36:24.905Z,33.15
2022-08-26T08:43:37.642Z,32.00
2022-08-26T08:46:13.051Z,31.39
2022-08-26T08:48:48.284Z,31.00
2022-08-26T08:51:28.439Z,30.74
2022-08-26T08:54:02.320Z,30.57
2022-08-26T08:56:42.972Z,30.38
2022-08-26T08:59:19.965Z,30.28
2022-08-26T09:02:02.952Z,30.03
2022-08-26T09:04:56.185Z,29.85
2022-08-26T09:07:40.036Z,29.87
2022-08-26T09:10:32.269Z,29.85
2022-08-26T09:13:16.909Z,29.83
2022-08-26T09:16:06.865Z,29.90
2022-08-26T09:18:40.464Z,29.99
2022-08-26T09:21:14.290Z,30.16
2022-08-26T09:23:49.526Z,30.42
2022-08-26T09:26:25.940Z,30.56
2022-08-26T09:29:03.601Z,30.74
2022-08-26T09:31:39.330Z,30.77
2022-08-26T09:34:19.016Z,30.84
2022-08-26T09:36:51.795Z,30.84
2022-08-26T09:39:32.207Z,30.83
2022-08-26T09:42:09.532Z,30.99
2022-08-26T09:47:43.149Z,31.72
2022-08-26T09:50:29.055Z,31.83
2022-08-26T09:53:17.149Z,31.91
2022-08-26T09:55:55.489Z,32.01
2022-08-26T09:58:37.962Z,32.02
2022-08-26T10:01:11.202Z,31.85
2022-08-26T10:03:42.274Z,31.66
2022-08-26T10:06:26.996Z,31.50
2022-08-26T10:09:01.373Z,31.37
2022-08-26T10:11:42.764Z,31.19
2022-08-26T10:14:19.080Z,31.14
2022-08-26T10:16:53.728Z,31.20
2022-08-26T10:19:29.158Z,31.26
2022-08-26T10:22:22.269Z,31.26
2022-08-26T10:24:55.782Z,31.12
2022-08-26T10:27:34.017Z,31.01
2022-08-26T10:30:10.587Z,30.95
2022-08-26T10:32:44.370Z,30.89
2022-08-26T10:35:19.224Z,30.89
2022-08-26T10:37:53.767Z,30.88
2022-08-26T10:40:27.296Z,30.88
2022-08-26T10:43:07.058Z,31.00
2022-08-26T10:45:44.294Z,31.23
2022-08-26T10:48:17.983Z,31.54
2022-08-26T10:50:49.618Z,31.90
2022-08-26T10:53:28.402Z,32.19
2022-08-26T10:56:18.016Z,32.36
2022-08-26T10:59:01.265Z,32.57
2022-08-26T11:07:43.995Z,33.25
2022-08-26T11:10:50.347Z,33.67
2022-08-26T11:13:21.199Z,33.82
2022-08-26T11:16:09.693Z,33.92
2022-08-26T11:18:54.774Z,33.87
2022-08-26T11:21:52.118Z,33.60
2022-08-26T11:24:47.561Z,33.49
2022-08-26T11:28:05.236Z,33.51
2022-08-26T11:30:56.953Z,33.62
2022-08-26T11:34:00.266Z,33.73
2022-08-26T11:37:00.811Z,33.70
2022-08-26T11:39:36.676Z,33.68
2022-08-26T11:42:24.456Z,33.56
2022-08-26T11:45:04.692Z,33.52
2022-08-26T11:47:36.868Z,33.56
2022-08-26T11:50:18.904Z,33.58
2022-08-26T11:53:02.516Z,33.59
2022-08-26T11:55:35.181Z,33.54
2022-08-26T11:58:08.650Z,33.42
2022-08-26T12:00:45.593Z,33.39
2022-08-26T12:03:23.014Z,33.35
2022-08-26T12:05:55.258Z,33.38
2022-08-26T12:08:31.158Z,33.73
2022-08-26T12:11:11.136Z,34.37
2022-08-26T12:13:43.249Z,35.11
2022-08-26T12:16:26.697Z,35.70
2022-08-26T12:18:58.563Z,36.26
2022-08-26T12:21:34.836Z,36.92
2022-08-26T12:24:08.289Z,37.36
2022-08-26T12:26:40.443Z,37.55
2022-08-26T12:29:20.136Z,37.74
2022-08-26T12:32:13.513Z,37.74
2022-08-26T12:34:51.993Z,37.79
2022-08-26T12:37:27.307Z,37.41
2022-08-26T12:40:31.922Z,36.93
2022-08-26T12:43:05.260Z,36.59
2022-08-26T12:45:38.837Z,36.48
2022-08-26T12:48:13.590Z,36.85
2022-08-26T12:50:52.174Z,38.26
2022-08-26T12:53:26.538Z,39.54
2022-08-26T12:56:00.335Z,40.62
2022-08-26T12:58:33.702Z,41.78
2022-08-26T13:01:26.750Z,42.52
2022-08-26T13:03:59.601Z,43.24
2022-08-26T13:06:32.713Z,43.56
2022-08-26T13:09:06.515Z,42.58
2022-08-26T13:12:02.137Z,41.57
2022-08-26T13:14:35.789Z,40.69
2022-08-26T13:17:06.752Z,39.82
2022-08-26T13:19:37.835Z,39.42
2022-08-26T13:22:09.012Z,40.04
2022-08-26T13:24:41.950Z,40.81
2022-08-26T13:27:14.480Z,41.71
2022-08-26T13:29:45.983Z,42.18
2022-08-26T13:32:22.596Z,41.18
2022-08-26T13:34:59.725Z,39.83
2022-08-26T13:37:35.088Z,38.65
2022-08-26T13:40:08.422Z,37.70
2022-08-26T13:49:49.216Z,35.84
2022-08-26T13:52:29.177Z,36.57
2022-08-26T13:55:07.122Z,37.76
2022-08-26T13:57:42.410Z,38.50
2022-08-26T14:00:18.255Z,38.96
2022-08-26T14:02:51.639Z,39.14
2022-08-26T14:05:23.715Z,38.28
2022-08-26T14:07:57.537Z,37.42
2022-08-26T14:10:31.133Z,38.00
2022-08-26T14:13:05.572Z,39.02
2022-08-26T14:15:40.191Z,39.97
2022-08-26T14:18:14.103Z,40.46
2022-08-26T14:20:51.186Z,40.13
2022-08-26T14:23:23.270Z,38.96
2022-08-26T14:25:54.373Z,37.39
2022-08-26T14:31:01.492Z,34.58
2022-08-26T14:33:35.681Z,33.44
2022-08-26T14:36:25.070Z,32.57
2022-08-26T14:38:56.507Z,31.83
2022-08-26T14:41:28.224Z,31.62
2022-08-26T14:44:00.472Z,31.97
2022-08-26T14:46:33.407Z,31.66
2022-08-26T14:49:07.299Z,31.24
2022-08-26T14:51:41.223Z,30.90
2022-08-26T14:54:13.641Z,30.54
2022-08-26T14:56:47.443Z,30.26
2022-08-26T14:59:22.163Z,30.09
2022-08-26T15:01:53.365Z,29.98
2022-08-26T15:04:24.461Z,29.92
2022-08-26T15:06:57.551Z,29.90
2022-08-26T15:09:31.877Z,29.81
2022-08-26T15:12:03.831Z,29.71
2022-08-26T15:14:33.406Z,29.66
2022-08-26T15:17:06.004Z,29.63
2022-08-26T15:19:37.365Z,29.59
2022-08-26T15:22:08.826Z,29.53
2022-08-26T15:24:42.621Z,29.37
2022-08-26T15:27:14.286Z,29.22
2022-08-26T15:29:45.299Z,29.07
2022-08-26T15:32:16.919Z,28.91
2022-08-26T15:34:49.860Z,28.84
2022-08-26T15:37:20.571Z,28.76
2022-08-26T15:39:55.153Z,28.59
2022-08-26T15:42:26.817Z,28.41
2022-08-26T15:44:58.017Z,28.22
2022-08-26T15:47:29.133Z,28.09
2022-08-26T15:50:01.014Z,28.02
2022-08-26T15:52:32.828Z,27.96
2022-08-26T15:57:40.085Z,27.78
2022-08-26T16:00:15.736Z,27.70
2022-08-26T16:02:46.881Z,27.66
2022-08-26T16:05:18.815Z,27.58
2022-08-26T16:07:56.104Z,27.48
2022-08-26T16:10:31.471Z,27.36
2022-08-26T16:13:03.074Z,27.23
2022-08-26T16:15:35.319Z,27.06
2022-08-26T16:18:09.505Z,26.90
2022-08-26T16:20:56.038Z,26.76
2022-08-26T16:23:44.299Z,26.59
2022-08-26T16:26:19.714Z,26.44
2022-08-26T16:28:54.841Z,26.32
2022-08-26T16:31:30.371Z,26.23
2022-08-26T16:34:03.047Z,26.09
2022-08-26T16:36:35.373Z,25.95
2022-08-26T16:39:08.170Z,25.84
2022-08-26T16:41:40.390Z,25.74
2022-08-26T16:44:12.748Z,25.61
2022-08-26T16:46:45.662Z,25.45
2022-08-26T16:49:18.428Z,25.29
2022-08-26T16:51:50.501Z,25.14
2022-08-26T16:54:22.567Z,24.99
2022-08-26T16:56:53.956Z,24.83
2022-08-26T16:59:28.327Z,24.70
2022-08-26T17:01:59.580Z,24.55
2022-08-26T17:04:32.011Z,24.40
2022-08-26T17:07:01.352Z,24.24
2022-08-26T17:09:33.078Z,24.10
2022-08-26T17:12:04.392Z,23.98
2022-08-26T17:14:36.527Z,23.89
2022-08-26T17:17:13.204Z,23.80
2022-08-26T17:19:47.205Z,23.67
2022-08-26T17:22:19.271Z,23.55
2022-08-26T17:24:50.210Z,23.43
2022-08-26T17:27:21.251Z,23.35
2022-08-26T17:29:53.634Z,23.23
2022-08-26T17:32:24.769Z,23.12
2022-08-26T17:34:55.973Z,23.04
2022-08-26T17:37:27.170Z,22.97
2022-08-26T17:39:58.964Z,22.90
2022-08-26T17:42:31.846Z,22.84
2022-08-26T17:45:03.747Z,22.79
2022-08-26T17:47:36.133Z,22.75
2022-08-26T17:50:10.375Z,22.70
2022-08-26T17:52:46.045Z,22.63
2022-08-26T17:55:18.875Z,22.57
2022-08-26T17:57:53.413Z,22.50
2022-08-26T18:00:27.534Z,22.44
2022-08-26T18:02:59.159Z,22.40
2022-08-26T18:05:31.052Z,22.36
2022-08-26T18:08:02.526Z,22.32
2022-08-26T18:10:34.131Z,22.27
2022-08-26T18:13:06.185Z,22.23
2022-08-26T18:15:39.527Z,22.19
2022-08-26T18:18:10.542Z,22.15
2022-08-26T18:20:45.782Z,22.11
2022-08-26T18:23:22.960Z,22.07
2022-08-26T18:25:58.253Z,22.05
2022-08-26T18:28:30.084Z,22.05
2022-08-26T18:31:03.551Z,22.02
2022-08-26T18:33:35.419Z,22.02
2022-08-26T18:36:07.334Z,22.02
2022-08-26T18:38:38.623Z,22.02
2022-08-26T18:41:14.184Z,22.02
2022-08-26T18:43:45.453Z,22.01
2022-08-26T18:46:16.665Z,22.02
2022-08-26T18:48:50.991Z,22.01
2022-08-26T18:51:28.242Z,21.99
2022-08-26T18:54:00.193Z,21.99
2022-08-26T18:56:31.816Z,22.00
2022-08-26T18:59:03.567Z,22.02
2022-08-26T19:01:39.134Z,22.02
2022-08-26T19:04:14.101Z,22.02
2022-08-26T19:06:48.882Z,22.03
2022-08-26T19:09:21.226Z,22.03
2022-08-26T19:11:50.877Z,22.01
2022-08-26T19:14:23.903Z,22.01
2022-08-26T19:16:56.052Z,21.99
2022-08-26T19:19:27.969Z,21.98
2022-08-26T19:21:59.225Z,21.97
2022-08-26T19:24:35.293Z,21.94
2022-08-26T19:27:14.942Z,21.93
2022-08-26T19:29:46.920Z,21.90
2022-08-26T19:32:18.195Z,21.90
2022-08-26T19:34:51.214Z,21.89
2022-08-26T19:37:23.279Z,21.86
2022-08-26T19:39:54.671Z,21.82
2022-08-26T19:42:26.045Z,21.77
2022-08-26T19:45:20.213Z,21.73
2022-08-26T19:47:56.631Z,21.68
2022-08-26T19:50:29.621Z,21.64
2022-08-26T19:53:02.078Z,21.61
2022-08-26T19:55:33.939Z,21.59
2022-08-26T19:58:05.190Z,21.56
2022-08-26T20:00:39.817Z,21.53
2022-08-26T20:03:15.945Z,21.50
2022-08-26T20:05:47.528Z,21.48
2022-08-26T20:08:22.602Z,21.45
2022-08-26T20:10:54.324Z,21.41
2022-08-26T20:13:28.457Z,21.38
2022-08-26T20:15:59.860Z,21.34
2022-08-26T20:18:51.440Z,21.30
2022-08-26T20:21:29.623Z,21.24
2022-08-26T20:24:04.240Z,21.18
2022-08-26T20:26:37.624Z,21.13
2022-08-26T20:29:16.117Z,21.09
2022-08-26T20:32:06.416Z,21.06
2022-08-26T20:34:38.374Z,21.02
2022-08-26T20:37:10.157Z,20.99
2022-08-26T20:39:42.265Z,20.96
2022-08-26T20:42:20.006Z,20.94
2022-08-26T20:44:54.696Z,20.91
2022-08-26T20:47:26.399Z,20.90
2022-08-26T20:50:00.635Z,20.89
2022-08-26T20:52:31.604Z,20.87
2022-08-26T20:55:02.236Z,20.86
2022-08-26T20:57:33.636Z,20.85
2022-08-26T21:00:05.655Z,20.84
2022-08-26T21:02:37.152Z,20.85
2022-08-26T21:05:11.157Z,20.85
2022-08-26T21:07:42.051Z,20.83
2022-08-26T21:10:15.038Z,20.82
2022-08-26T21:12:46.546Z,20.80
2022-08-26T21:15:17.592Z,20.77
2022-08-26T21:17:49.127Z,20.73
2022-08-26T21:20:20.765Z,20.68
2022-08-26T21:22:52.325Z,20.63
2022-08-26T21:25:23.681Z,20.59
2022-08-26T21:27:55.643Z,20.57
2022-08-26T21:30:27.024Z,20.59
2022-08-26T21:33:00.797Z,20.59
2022-08-26T21:35:35.121Z,20.58
2022-08-26T21:38:06.487Z,20.56
2022-08-26T21:40:37.771Z,20.54
2022-08-26T21:43:08.702Z,20.53
2022-08-26T21:45:45.530Z,20.52
2022-08-26T21:48:17.138Z,20.53
2022-08-26T21:50:49.314Z,20.51
2022-08-26T21:53:20.845Z,20.55
2022-08-26T21:55:53.094Z,20.57
2022-08-26T21:58:25.398Z,20.59
2022-08-26T22:00:56.731Z,20.61
2022-08-26T22:03:28.598Z,20.61
2022-08-26T22:06:03.554Z,20.59
2022-08-26T22:08:38.466Z,20.58
2022-08-26T22:11:15.486Z,20.58
2022-08-26T22:13:49.988Z,20.59
2022-08-26T22:16:22.877Z,20.62
2022-08-26T22:18:58.907Z,20.63
2022-08-26T22:21:33.250Z,20.63
2022-08-26T22:24:07.339Z,20.64
2022-08-26T22:26:40.251Z,20.64
2022-08-26T22:29:16.079Z,20.63
2022-08-26T22:31:53.900Z,20.63
2022-08-26T22:34:26.891Z,20.62
2022-08-26T22:36:59.645Z,20.60
2022-08-26T22:39:37.383Z,20.60
2022-08-26T22:42:13.287Z,20.59
2022-08-26T22:44:47.750Z,20.59
2022-08-26T22:47:19.567Z,20.58
2022-08-26T22:49:52.592Z,20.55
2022-08-26T22:52:28.964Z,20.50
2022-08-26T22:55:13.543Z,20.45
2022-08-26T23:00:36.582Z,20.35
2022-08-26T23:03:09.901Z,20.34
2022-08-26T23:05:50.605Z,20.33
2022-08-26T23:08:29.244Z,20.32
2022-08-26T23:11:02.276Z,20.32
2022-08-26T23:13:36.336Z,20.30
2022-08-26T23:16:12.487Z,20.29
2022-08-26T23:18:45.898Z,20.29
2022-08-26T23:21:22.492Z,20.27
2022-08-26T23:23:57.500Z,20.29
2022-08-26T23:26:31.456Z,20.29
2022-08-26T23:29:05.471Z,20.29
2022-08-26T23:31:40.301Z,20.27
2022-08-26T23:34:30.319Z,20.25
2022-08-26T23:37:06.663Z,20.22
2022-08-26T23:39:44.612Z,20.18
2022-08-26T23:42:27.857Z,20.14
2022-08-26T23:47:55.546Z,20.14
2022-08-26T23:50:44.929Z,20.14
2022-08-26T23:53:21.001Z,20.13
2022-08-26T23:55:55.627Z,20.13
2022-08-26T23:58:29.932Z,20.14
